Time;durP1;ratioP1;P1;durP2;ratioP2;P2;SDS_P1;SDS_P2;PMS_P1;PMS_P2;Temp;Humidity;BMP_temperature;BMP_pressure;BME280_temperature;BME280_humidity;BME280_pressure;Samples;Min_cycle;Max_cycle;Signal;HPM_P1;HPM_P2
2024/01/14 00:01:47;;;;;;;10.52;7.30;;;;;;;;;;4915847;29;20024;-67
2024/01/14 00:04:12;;;;;;;11.75;7.47;;;;;;;;;;4913235;29;20024;-61
2024/01/14 00:06:38;;;;;;;11.65;7.65;;;;;;;;;;4914071;29;20526;-67
2024/01/14 00:09:04;;;;;;;10.93;7.20;;;;;;;;;;4915238;29;20032;-67
2024/01/14 00:11:29;;;;;;;10.93;7.18;;;;;;;;;;4915571;29;20381;-66
2024/01/14 00:13:55;;;;;;;10.13;7.30;;;;;;;;;;4915453;29;20107;-65
2024/01/14 00:16:20;;;;;;;9.93;6.93;;;;;;;;;;4914655;29;20043;-65
2024/01/14 00:18:46;;;;;;;9.93;6.68;;;;;;;;;;4914642;29;20028;-66
2024/01/14 00:21:11;;;;;;;9.65;7.07;;;;;;;;;;4915890;29;20545;-65
2024/01/14 00:23:37;;;;;;;9.90;7.13;;;;;;;;;;4915855;29;20119;-65
2024/01/14 00:26:03;;;;;;;12.65;7.35;;;;;;;;;;4915864;29;20115;-65
2024/01/14 00:28:28;;;;;;;8.02;6.28;;;;;;;;;;4915235;29;20107;-67
2024/01/14 00:30:54;;;;;;;10.07;6.50;;;;;;;;;;4914937;29;20028;-67
2024/01/14 00:33:19;;;;;;;8.98;6.50;;;;;;;;;;4915734;29;20025;-65
2024/01/14 00:35:45;;;;;;;10.35;6.70;;;;;;;;;;4915941;29;20035;-66
2024/01/14 00:38:10;;;;;;;10.02;7.20;;;;;;;;;;4915847;29;20024;-66
2024/01/14 00:40:37;;;;;;;9.50;7.10;;;;;;;;;;4916159;29;20035;-67
2024/01/14 00:43:03;;;;;;;9.18;6.75;;;;;;;;;;4916828;29;20035;-67
2024/01/14 00:45:28;;;;;;;11.10;7.07;;;;;;;;;;4916071;29;20048;-67
2024/01/14 00:47:54;;;;;;;10.35;7.03;;;;;;;;;;4916334;29;20032;-65
2024/01/14 00:50:20;;;;;;;10.43;7.05;;;;;;;;;;4916272;29;20024;-66
2024/01/14 00:52:45;;;;;;;10.52;7.35;;;;;;;;;;4916494;29;20386;-66
2024/01/14 00:55:11;;;;;;;9.75;6.55;;;;;;;;;;4916001;29;20048;-66
2024/01/14 00:57:37;;;;;;;10.57;6.95;;;;;;;;;;4916221;29;20028;-65
2024/01/14 01:00:04;;;;;;;11.45;7.20;;;;;;;;;;4916004;29;20059;-65
2024/01/14 01:02:29;;;;;;;9.27;6.65;;;;;;;;;;4915888;29;20028;-65
2024/01/14 01:04:55;;;;;;;9.82;7.00;;;;;;;;;;4916182;29;20020;-64
2024/01/14 01:07:20;;;;;;;9.63;7.20;;;;;;;;;;4916167;29;20374;-65
2024/01/14 01:09:46;;;;;;;9.32;6.82;;;;;;;;;;4915836;29;20043;-65
2024/01/14 01:12:11;;;;;;;11.23;7.70;;;;;;;;;;4915755;29;20033;-65
2024/01/14 01:14:37;;;;;;;9.23;7.00;;;;;;;;;;4917007;29;20039;-65
2024/01/14 01:17:04;;;;;;;9.75;6.63;;;;;;;;;;4916853;29;20020;-65
2024/01/14 01:19:30;;;;;;;9.68;7.47;;;;;;;;;;4918106;29;20042;-66
2024/01/14 01:21:55;;;;;;;9.05;6.57;;;;;;;;;;4919014;29;20020;-66
2024/01/14 01:24:21;;;;;;;9.77;7.25;;;;;;;;;;4919934;29;20103;-66
2024/01/14 01:26:46;;;;;;;9.25;6.82;;;;;;;;;;4919220;29;20039;-66
2024/01/14 01:29:12;;;;;;;11.23;7.15;;;;;;;;;;4919190;29;20036;-66
2024/01/14 01:31:37;;;;;;;9.98;7.03;;;;;;;;;;4919081;29;20061;-67
2024/01/14 01:34:03;;;;;;;10.45;6.60;;;;;;;;;;4903475;29;20040;-66
2024/01/14 01:36:29;;;;;;;10.27;7.30;;;;;;;;;;4919315;29;20024;-67
2024/01/14 01:38:54;;;;;;;9.93;7.00;;;;;;;;;;4919561;29;20388;-67
2024/01/14 01:41:22;;;;;;;8.27;6.55;;;;;;;;;;4919052;29;20393;-66
2024/01/14 01:43:47;;;;;;;12.35;7.28;;;;;;;;;;4918698;29;20122;-67
2024/01/14 01:46:13;;;;;;;11.68;6.88;;;;;;;;;;4919136;29;20116;-67
2024/01/14 01:48:38;;;;;;;10.27;6.78;;;;;;;;;;4919136;29;20406;-67
2024/01/14 01:51:05;;;;;;;10.13;6.70;;;;;;;;;;4918717;29;20028;-66
2024/01/14 01:53:30;;;;;;;9.25;6.60;;;;;;;;;;4919260;29;20107;-67
2024/01/14 01:55:56;;;;;;;10.45;6.40;;;;;;;;;;4918634;29;20473;-67
2024/01/14 01:58:22;;;;;;;12.18;7.05;;;;;;;;;;4918635;29;20032;-69
2024/01/14 02:00:49;;;;;;;9.40;6.60;;;;;;;;;;4918536;29;20079;-67
2024/01/14 02:03:15;;;;;;;8.70;6.80;;;;;;;;;;4921018;29;20017;-65
2024/01/14 02:05:44;;;;;;;10.25;6.93;;;;;;;;;;4918899;29;20047;-66
2024/01/14 02:08:10;;;;;;;9.82;6.82;;;;;;;;;;4918541;29;20625;-66
2024/01/14 02:10:36;;;;;;;8.30;6.70;;;;;;;;;;4918446;29;20028;-66
2024/01/14 02:13:03;;;;;;;10.05;6.85;;;;;;;;;;4918444;29;20389;-66
2024/01/14 02:15:29;;;;;;;9.77;6.93;;;;;;;;;;4918275;29;20471;-66
2024/01/14 02:17:55;;;;;;;12.30;7.15;;;;;;;;;;4918307;29;20160;-67
2024/01/14 02:20:21;;;;;;;9.27;6.85;;;;;;;;;;4918561;29;20059;-66
2024/01/14 02:22:48;;;;;;;9.95;6.78;;;;;;;;;;4919128;29;20063;-66
2024/01/14 02:25:14;;;;;;;10.38;7.20;;;;;;;;;;4918482;29;20032;-66
2024/01/14 02:27:40;;;;;;;10.57;7.28;;;;;;;;;;4918542;29;20043;-66
2024/01/14 02:30:09;;;;;;;11.65;7.30;;;;;;;;;;4918116;29;20031;-65
2024/01/14 02:32:38;;;;;;;10.43;7.05;;;;;;;;;;4917964;29;20473;-65
2024/01/14 02:35:05;;;;;;;9.52;6.93;;;;;;;;;;4918257;29;20043;-65
2024/01/14 02:37:31;;;;;;;10.23;6.93;;;;;;;;;;4917945;29;20028;-65
2024/01/14 02:39:57;;;;;;;9.65;6.95;;;;;;;;;;4918019;29;20084;-65
2024/01/14 02:42:22;;;;;;;9.07;6.55;;;;;;;;;;4919159;29;20016;-65
2024/01/14 02:44:48;;;;;;;9.77;6.72;;;;;;;;;;4917676;29;20112;-65
2024/01/14 02:47:14;;;;;;;9.98;7.03;;;;;;;;;;4917824;29;20055;-65
2024/01/14 02:49:39;;;;;;;9.43;6.80;;;;;;;;;;4901379;29;20107;-65
2024/01/14 02:52:05;;;;;;;12.70;6.97;;;;;;;;;;4918163;29;20032;-65
2024/01/14 02:54:30;;;;;;;9.60;6.97;;;;;;;;;;4918112;29;20035;-68
2024/01/14 02:56:56;;;;;;;9.05;6.88;;;;;;;;;;4917840;29;20164;-65
2024/01/14 02:59:21;;;;;;;9.95;6.88;;;;;;;;;;4917858;29;20504;-65
2024/01/14 03:01:47;;;;;;;10.60;7.28;;;;;;;;;;4917533;29;20404;-65
2024/01/14 03:04:12;;;;;;;7.70;6.38;;;;;;;;;;4917561;29;20024;-65
2024/01/14 03:06:38;;;;;;;10.05;6.78;;;;;;;;;;4918512;29;20032;-65
2024/01/14 03:09:07;;;;;;;10.27;7.00;;;;;;;;;;4918882;29;20039;-65
2024/01/14 03:11:35;;;;;;;9.55;7.07;;;;;;;;;;4917472;29;20020;-65
2024/01/14 03:14:01;;;;;;;9.88;6.90;;;;;;;;;;4917334;29;20478;-64
2024/01/14 03:16:27;;;;;;;12.10;7.53;;;;;;;;;;4917180;29;20123;-65
2024/01/14 03:18:52;;;;;;;10.40;7.07;;;;;;;;;;4900259;29;20056;-66
2024/01/14 03:21:18;;;;;;;10.38;6.65;;;;;;;;;;4918865;29;20032;-65
2024/01/14 03:23:44;;;;;;;9.63;6.30;;;;;;;;;;4917055;29;20031;-65
2024/01/14 03:26:10;;;;;;;9.73;6.90;;;;;;;;;;4900115;29;20027;-66
2024/01/14 03:28:35;;;;;;;9.80;6.60;;;;;;;;;;4918135;29;20075;-65
2024/01/14 03:31:01;;;;;;;10.20;6.75;;;;;;;;;;4900588;29;20028;-66
2024/01/14 03:33:27;;;;;;;9.63;6.95;;;;;;;;;;4917129;29;20106;-66
2024/01/14 03:35:52;;;;;;;11.05;6.63;;;;;;;;;;4916876;29;20028;-66
2024/01/14 03:38:18;;;;;;;9.32;6.68;;;;;;;;;;4916872;29;20036;-66
2024/01/14 03:40:44;;;;;;;10.27;6.70;;;;;;;;;;4916867;29;20028;-66
2024/01/14 03:43:09;;;;;;;9.43;6.45;;;;;;;;;;4899162;29;20036;-66
2024/01/14 03:45:35;;;;;;;8.65;6.50;;;;;;;;;;4916725;29;20119;-67
2024/01/14 03:48:00;;;;;;;9.43;6.60;;;;;;;;;;4917101;29;20428;-67
2024/01/14 03:50:26;;;;;;;9.48;6.32;;;;;;;;;;4917066;29;20028;-67
2024/01/14 03:52:51;;;;;;;9.00;6.40;;;;;;;;;;4916737;29;20119;-67
2024/01/14 03:55:17;;;;;;;9.10;6.78;;;;;;;;;;4916789;29;20024;-67
2024/01/14 03:57:42;;;;;;;9.70;6.82;;;;;;;;;;4917667;29;20414;-67
2024/01/14 04:00:10;;;;;;;9.35;6.30;;;;;;;;;;4916544;29;20060;-67
2024/01/14 04:02:36;;;;;;;13.23;7.40;;;;;;;;;;4916493;29;20032;-66
2024/01/14 04:05:01;;;;;;;8.60;6.20;;;;;;;;;;4916825;29;20103;-67
2024/01/14 04:07:27;;;;;;;9.38;6.28;;;;;;;;;;4917078;29;20060;-67
2024/01/14 04:09:52;;;;;;;8.75;6.38;;;;;;;;;;4917115;29;20469;-65
2024/01/14 04:12:18;;;;;;;10.18;6.47;;;;;;;;;;4917323;29;20093;-65
2024/01/14 04:14:46;;;;;;;9.10;6.53;;;;;;;;;;4916597;29;20470;-65
2024/01/14 04:17:12;;;;;;;8.68;6.25;;;;;;;;;;4916381;29;20028;-66
2024/01/14 04:19:38;;;;;;;8.95;6.75;;;;;;;;;;4916338;29;20393;-65
2024/01/14 04:22:03;;;;;;;9.43;6.53;;;;;;;;;;4916315;29;20084;-65
2024/01/14 04:24:29;;;;;;;9.98;6.72;;;;;;;;;;4916218;29;20385;-65
2024/01/14 04:26:55;;;;;;;9.13;6.15;;;;;;;;;;4916508;29;20039;-64
2024/01/14 04:29:20;;;;;;;8.25;6.57;;;;;;;;;;4916242;29;20418;-65
2024/01/14 04:31:46;;;;;;;10.00;6.63;;;;;;;;;;4916162;29;20131;-66
2024/01/14 04:34:11;;;;;;;8.70;6.50;;;;;;;;;;4916367;29;20028;-65
2024/01/14 04:36:37;;;;;;;9.23;5.85;;;;;;;;;;4916161;29;20024;-65
2024/01/14 04:39:02;;;;;;;9.23;6.38;;;;;;;;;;4916359;29;20039;-65
2024/01/14 04:41:28;;;;;;;9.10;6.05;;;;;;;;;;4916754;29;20028;-65
2024/01/14 04:43:54;;;;;;;8.82;6.18;;;;;;;;;;4915988;29;20032;-65
2024/01/14 04:46:20;;;;;;;8.02;5.90;;;;;;;;;;4916047;29;20028;-65
2024/01/14 04:48:45;;;;;;;8.52;6.13;;;;;;;;;;4916002;29;20039;-65
2024/01/14 04:51:11;;;;;;;7.05;5.82;;;;;;;;;;4916092;29;20031;-66
2024/01/14 04:53:37;;;;;;;7.38;5.78;;;;;;;;;;4916869;29;20036;-66
2024/01/14 04:56:07;;;;;;;8.57;6.00;;;;;;;;;;4920145;29;20116;-66
2024/01/14 04:58:32;;;;;;;10.55;6.50;;;;;;;;;;4920892;29;20033;-66
2024/01/14 05:00:58;;;;;;;9.82;6.57;;;;;;;;;;4919684;29;20059;-66
2024/01/14 05:03:23;;;;;;;7.78;6.20;;;;;;;;;;4919664;29;20384;-67
2024/01/14 05:05:49;;;;;;;8.65;6.13;;;;;;;;;;4920630;29;20381;-66
2024/01/14 05:08:14;;;;;;;7.35;5.68;;;;;;;;;;4920446;29;20034;-66
2024/01/14 05:10:40;;;;;;;8.25;5.75;;;;;;;;;;4920404;29;20119;-66
2024/01/14 05:13:06;;;;;;;8.18;5.82;;;;;;;;;;4919477;29;20225;-67
2024/01/14 05:15:31;;;;;;;9.15;6.47;;;;;;;;;;4919461;29;20438;-67
2024/01/14 05:17:57;;;;;;;7.75;5.75;;;;;;;;;;4920465;29;20032;-66
2024/01/14 05:20:22;;;;;;;8.77;6.28;;;;;;;;;;4920137;29;20029;-67
2024/01/14 05:22:48;;;;;;;8.32;6.10;;;;;;;;;;4919357;29;20472;-66
2024/01/14 05:25:13;;;;;;;8.07;6.13;;;;;;;;;;4919410;29;20388;-66
2024/01/14 05:27:39;;;;;;;8.13;5.88;;;;;;;;;;4919563;29;20453;-66
2024/01/14 05:30:05;;;;;;;7.85;5.95;;;;;;;;;;4920654;29;20500;-66
2024/01/14 05:32:30;;;;;;;7.95;6.15;;;;;;;;;;4918993;29;20028;-67
2024/01/14 05:34:56;;;;;;;8.02;6.10;;;;;;;;;;4919151;29;20035;-68
2024/01/14 05:37:21;;;;;;;7.90;5.85;;;;;;;;;;4920529;29;20058;-65
2024/01/14 05:39:47;;;;;;;9.23;6.45;;;;;;;;;;4919396;29;20528;-65
2024/01/14 05:42:12;;;;;;;8.82;6.63;;;;;;;;;;4919074;29;20028;-66
2024/01/14 05:44:38;;;;;;;8.02;5.93;;;;;;;;;;4918869;29;20044;-66
2024/01/14 05:47:04;;;;;;;7.68;6.10;;;;;;;;;;4919509;29;20036;-64
2024/01/14 05:49:29;;;;;;;8.57;5.90;;;;;;;;;;4918934;29;20039;-66
2024/01/14 05:51:55;;;;;;;8.07;6.30;;;;;;;;;;4918730;29;20020;-66
2024/01/14 05:54:20;;;;;;;7.75;6.22;;;;;;;;;;4919034;29;20036;-66
2024/01/14 05:56:46;;;;;;;8.20;5.88;;;;;;;;;;4918888;29;20024;-66
2024/01/14 05:59:12;;;;;;;7.60;5.90;;;;;;;;;;4918574;29;20039;-66
2024/01/14 06:01:38;;;;;;;9.07;6.18;;;;;;;;;;4918681;29;20024;-67
2024/01/14 06:04:04;;;;;;;7.40;5.75;;;;;;;;;;4918534;29;20028;-67
2024/01/14 06:06:29;;;;;;;7.47;6.13;;;;;;;;;;4917839;29;20034;-66
2024/01/14 06:08:55;;;;;;;8.63;6.07;;;;;;;;;;4918478;29;20059;-66
2024/01/14 06:11:20;;;;;;;7.60;5.75;;;;;;;;;;4918419;29;20024;-66
2024/01/14 06:13:46;;;;;;;10.30;5.85;;;;;;;;;;4918583;29;20437;-66
2024/01/14 06:16:12;;;;;;;7.68;5.65;;;;;;;;;;4919617;29;20032;-67
2024/01/14 06:18:39;;;;;;;8.75;5.72;;;;;;;;;;4918460;29;20060;-67
2024/01/14 06:21:05;;;;;;;7.10;5.28;;;;;;;;;;4918576;29;20111;-67
2024/01/14 06:23:31;;;;;;;8.13;5.70;;;;;;;;;;4918427;29;20534;-67
2024/01/14 06:25:56;;;;;;;8.05;5.75;;;;;;;;;;4918313;29;20397;-67
2024/01/14 06:28:22;;;;;;;7.18;5.60;;;;;;;;;;4918354;29;20377;-66
2024/01/14 06:30:48;;;;;;;7.47;5.50;;;;;;;;;;4918334;29;20032;-66
2024/01/14 06:33:13;;;;;;;8.25;5.80;;;;;;;;;;4918404;29;20032;-66
2024/01/14 06:35:39;;;;;;;7.93;5.63;;;;;;;;;;4918235;29;20028;-66
2024/01/14 06:38:06;;;;;;;7.65;5.50;;;;;;;;;;4918299;29;20038;-66
2024/01/14 06:40:31;;;;;;;7.90;5.55;;;;;;;;;;4917884;29;20032;-66
2024/01/14 06:42:57;;;;;;;8.05;5.40;;;;;;;;;;4918243;29;20043;-66
2024/01/14 06:45:22;;;;;;;7.85;5.93;;;;;;;;;;4917917;29;20449;-66
2024/01/14 06:47:48;;;;;;;8.18;5.70;;;;;;;;;;4918066;29;20032;-66
2024/01/14 06:50:14;;;;;;;7.75;5.80;;;;;;;;;;4917858;29;20366;-66
2024/01/14 06:52:39;;;;;;;8.55;5.80;;;;;;;;;;4917803;29;20525;-66
2024/01/14 06:55:05;;;;;;;9.35;5.65;;;;;;;;;;4901684;29;20028;-66
2024/01/14 06:57:34;;;;;;;7.88;5.45;;;;;;;;;;4917631;29;20054;-65
2024/01/14 07:00:04;;;;;;;8.07;5.07;;;;;;;;;;4917765;29;20036;-65
2024/01/14 07:02:30;;;;;;;6.93;5.17;;;;;;;;;;4917509;29;20087;-65
2024/01/14 07:04:55;;;;;;;8.13;5.47;;;;;;;;;;4917636;29;20036;-65
2024/01/14 07:07:21;;;;;;;7.05;5.60;;;;;;;;;;4917440;29;20055;-65
2024/01/14 07:09:47;;;;;;;7.95;5.45;;;;;;;;;;4917792;29;20485;-64
2024/01/14 07:12:12;;;;;;;7.63;5.40;;;;;;;;;;4917606;29;20034;-65
2024/01/14 07:14:38;;;;;;;8.77;5.53;;;;;;;;;;4917292;29;20086;-65
2024/01/14 07:17:03;;;;;;;6.75;5.45;;;;;;;;;;4917234;29;20047;-66
2024/01/14 07:19:29;;;;;;;7.18;5.35;;;;;;;;;;4917257;29;20035;-66
2024/01/14 07:21:56;;;;;;;7.57;5.55;;;;;;;;;;4917364;29;20039;-66
2024/01/14 07:24:21;;;;;;;8.88;6.13;;;;;;;;;;4917467;29;20453;-67
2024/01/14 07:26:47;;;;;;;7.95;5.90;;;;;;;;;;4917504;29;20032;-65
2024/01/14 07:29:12;;;;;;;6.82;5.50;;;;;;;;;;4916950;29;20385;-65
2024/01/14 07:31:38;;;;;;;7.20;5.50;;;;;;;;;;4918404;29;20032;-65
2024/01/14 07:34:03;;;;;;;7.97;5.57;;;;;;;;;;4918111;29;20032;-65
2024/01/14 07:36:29;;;;;;;9.10;5.78;;;;;;;;;;4916925;29;20025;-64
2024/01/14 07:38:55;;;;;;;7.43;5.38;;;;;;;;;;4917889;29;20116;-64
2024/01/14 07:41:21;;;;;;;7.72;5.70;;;;;;;;;;4917611;29;20028;-66
2024/01/14 07:43:47;;;;;;;7.90;5.82;;;;;;;;;;4916651;29;20103;-66
2024/01/14 07:46:12;;;;;;;6.90;5.43;;;;;;;;;;4917037;29;20036;-66
2024/01/14 07:48:39;;;;;;;7.00;5.32;;;;;;;;;;4899931;29;20097;-66
2024/01/14 07:51:04;;;;;;;7.40;5.28;;;;;;;;;;4916990;29;20043;-71
2024/01/14 07:53:30;;;;;;;6.50;5.38;;;;;;;;;;4917102;29;20111;-64
2024/01/14 07:55:56;;;;;;;8.02;5.45;;;;;;;;;;4916651;29;20084;-65
2024/01/14 07:58:22;;;;;;;7.03;5.22;;;;;;;;;;4916621;29;20382;-65
2024/01/14 08:00:47;;;;;;;7.25;5.50;;;;;;;;;;4917007;29;20107;-65
2024/01/14 08:03:13;;;;;;;7.43;5.53;;;;;;;;;;4916569;29;20032;-65
2024/01/14 08:05:39;;;;;;;6.65;5.10;;;;;;;;;;4917044;29;20032;-65
2024/01/14 08:08:05;;;;;;;8.45;5.60;;;;;;;;;;4917456;29;20075;-65
2024/01/14 08:10:32;;;;;;;8.07;5.43;;;;;;;;;;4916618;29;20047;-66
2024/01/14 08:12:58;;;;;;;7.43;5.30;;;;;;;;;;4916637;29;20032;-65
2024/01/14 08:15:24;;;;;;;8.98;6.00;;;;;;;;;;4917191;29;20103;-65
2024/01/14 08:17:49;;;;;;;7.43;5.75;;;;;;;;;;4917131;29;20124;-65
2024/01/14 08:20:15;;;;;;;7.93;5.95;;;;;;;;;;4916808;29;20501;-65
2024/01/14 08:22:40;;;;;;;7.63;5.85;;;;;;;;;;4916750;29;20039;-65
2024/01/14 08:25:07;;;;;;;7.70;5.53;;;;;;;;;;4916821;29;20394;-65
2024/01/14 08:27:33;;;;;;;7.75;5.60;;;;;;;;;;4916386;29;20536;-64
2024/01/14 08:29:59;;;;;;;7.97;5.70;;;;;;;;;;4920870;29;20381;-65
2024/01/14 08:32:25;;;;;;;8.80;6.10;;;;;;;;;;4922680;29;20032;-65
2024/01/14 08:34:50;;;;;;;8.05;6.22;;;;;;;;;;4922851;29;20080;-65
2024/01/14 08:37:16;;;;;;;8.35;5.80;;;;;;;;;;4922812;29;20040;-65
2024/01/14 08:39:41;;;;;;;7.63;5.68;;;;;;;;;;4922594;29;20441;-65
2024/01/14 08:42:07;;;;;;;7.70;5.60;;;;;;;;;;4922596;29;20033;-65
2024/01/14 08:44:33;;;;;;;6.75;5.32;;;;;;;;;;4905766;29;20502;-65
2024/01/14 08:46:59;;;;;;;7.93;6.03;;;;;;;;;;4922339;29;20066;-64
2024/01/14 08:49:26;;;;;;;7.45;5.63;;;;;;;;;;4922804;29;20024;-64
2024/01/14 08:51:52;;;;;;;8.60;5.85;;;;;;;;;;4922961;29;20028;-65
2024/01/14 08:54:18;;;;;;;7.75;6.20;;;;;;;;;;4922599;29;20031;-65
2024/01/14 08:56:43;;;;;;;7.60;5.65;;;;;;;;;;4923071;29;20036;-65
2024/01/14 08:59:09;;;;;;;8.00;5.75;;;;;;;;;;4922636;29;20028;-65
2024/01/14 09:01:35;;;;;;;8.18;5.93;;;;;;;;;;4924107;29;20031;-66
2024/01/14 09:04:00;;;;;;;8.18;5.80;;;;;;;;;;4922682;29;20040;-66
2024/01/14 09:06:26;;;;;;;8.95;6.47;;;;;;;;;;4922506;29;20028;-66
2024/01/14 09:08:51;;;;;;;7.15;5.80;;;;;;;;;;4906713;29;20024;-65
2024/01/14 09:11:17;;;;;;;7.38;5.60;;;;;;;;;;4922512;29;20056;-66
2024/01/14 09:13:45;;;;;;;7.72;5.72;;;;;;;;;;4922715;29;20083;-66
2024/01/14 09:16:11;;;;;;;8.07;5.90;;;;;;;;;;4922500;29;20028;-66
2024/01/14 09:18:37;;;;;;;7.93;5.75;;;;;;;;;;4923071;29;20444;-66
2024/01/14 09:21:03;;;;;;;7.72;5.53;;;;;;;;;;4923015;29;20108;-66
2024/01/14 09:23:29;;;;;;;7.75;5.60;;;;;;;;;;4923533;29;20027;-66
2024/01/14 09:25:58;;;;;;;7.35;5.15;;;;;;;;;;4923387;29;20469;-65
2024/01/14 09:28:24;;;;;;;7.90;5.78;;;;;;;;;;4922351;29;20028;-64
2024/01/14 09:30:50;;;;;;;7.20;5.75;;;;;;;;;;4922183;29;20512;-64
2024/01/14 09:33:16;;;;;;;6.68;5.35;;;;;;;;;;4922146;29;20683;-64
2024/01/14 09:35:42;;;;;;;8.80;6.28;;;;;;;;;;4922006;29;20028;-65
2024/01/14 09:38:09;;;;;;;8.82;5.68;;;;;;;;;;4922071;29;20031;-65
2024/01/14 09:40:37;;;;;;;7.30;5.72;;;;;;;;;;4921138;29;20032;-65
2024/01/14 09:43:06;;;;;;;6.93;5.70;;;;;;;;;;4919214;29;20028;-65
2024/01/14 09:45:38;;;;;;;7.05;5.65;;;;;;;;;;4919126;29;20055;-65
2024/01/14 09:48:04;;;;;;;7.30;5.70;;;;;;;;;;4919008;29;20043;-65
2024/01/14 09:50:31;;;;;;;6.68;5.55;;;;;;;;;;4901998;29;20028;-65
2024/01/14 09:52:58;;;;;;;6.78;5.32;;;;;;;;;;4918684;29;20083;-65
2024/01/14 09:55:27;;;;;;;8.90;5.82;;;;;;;;;;4919470;29;20449;-65
2024/01/14 09:57:53;;;;;;;7.93;5.75;;;;;;;;;;4918707;29;20024;-65
2024/01/14 10:00:22;;;;;;;6.43;5.38;;;;;;;;;;4919349;29;20032;-65
2024/01/14 10:02:48;;;;;;;9.10;5.78;;;;;;;;;;4919856;29;20028;-65
2024/01/14 10:05:16;;;;;;;8.07;5.72;;;;;;;;;;4919365;29;20112;-66
2024/01/14 10:07:46;;;;;;;7.38;5.70;;;;;;;;;;4919094;29;20036;-66
2024/01/14 10:10:11;;;;;;;8.10;6.07;;;;;;;;;;4915395;29;20012;-69
2024/01/14 10:12:37;;;;;;;7.88;5.85;;;;;;;;;;4917285;29;20842;-67
2024/01/14 10:15:04;;;;;;;7.50;5.47;;;;;;;;;;4917496;29;20024;-66
2024/01/14 10:17:31;;;;;;;12.70;6.35;;;;;;;;;;4917699;29;20042;-70
2024/01/14 10:20:00;;;;;;;7.20;5.38;;;;;;;;;;4916400;29;20021;-66
2024/01/14 10:22:26;;;;;;;7.15;5.20;;;;;;;;;;4916531;29;20434;-66
2024/01/14 10:24:53;;;;;;;6.90;5.65;;;;;;;;;;4917440;29;20031;-67
2024/01/14 10:27:22;;;;;;;6.88;5.40;;;;;;;;;;4917346;29;20024;-66
2024/01/14 10:29:52;;;;;;;8.55;5.88;;;;;;;;;;4915788;29;20032;-66
2024/01/14 10:32:20;;;;;;;8.90;5.90;;;;;;;;;;4913167;29;20028;-66
2024/01/14 10:34:46;;;;;;;6.97;5.35;;;;;;;;;;4909604;29;20260;-67
2024/01/14 10:37:12;;;;;;;7.32;5.60;;;;;;;;;;4909859;29;21069;-69
2024/01/14 10:39:40;;;;;;;8.05;5.55;;;;;;;;;;4911698;29;20028;-66
2024/01/14 10:42:06;;;;;;;7.32;5.47;;;;;;;;;;4910969;29;20047;-66
2024/01/14 10:44:32;;;;;;;8.02;5.47;;;;;;;;;;4913340;29;20059;-67
2024/01/14 10:47:02;;;;;;;7.07;5.57;;;;;;;;;;4911679;29;20465;-67
2024/01/14 10:49:30;;;;;;;7.45;5.43;;;;;;;;;;4916174;29;20418;-72
2024/01/14 10:52:23;;;;;;;6.43;5.20;;;;;;;;;;4912578;29;20363;-71
2024/01/14 10:54:52;;;;;;;7.55;5.68;;;;;;;;;;4910716;29;20051;-67
2024/01/14 10:57:37;;;;;;;6.45;5.38;;;;;;;;;;4917795;29;20032;-67
2024/01/14 11:00:06;;;;;;;6.60;5.00;;;;;;;;;;4915904;29;20059;-71
2024/01/14 11:02:36;;;;;;;5.82;4.55;;;;;;;;;;4912051;29;20106;-67
2024/01/14 11:05:03;;;;;;;7.75;5.28;;;;;;;;;;4912323;29;20028;-72
2024/01/14 11:07:33;;;;;;;6.22;5.20;;;;;;;;;;4915377;29;20028;-67
2024/01/14 11:09:59;;;;;;;10.05;5.20;;;;;;;;;;4916857;29;20035;-68
2024/01/14 11:12:33;;;;;;;8.15;5.63;;;;;;;;;;4914770;29;20040;-69
2024/01/14 11:15:06;;;;;;;7.50;5.47;;;;;;;;;;4913164;29;20029;-70
2024/01/14 11:17:59;;;;;;;7.20;5.72;;;;;;;;;;4911171;29;20028;-71
2024/01/14 11:20:29;;;;;;;11.05;5.47;;;;;;;;;;4908853;29;20035;-70
2024/01/14 11:22:55;;;;;;;6.47;5.07;;;;;;;;;;4907316;29;20024;-70
2024/01/14 11:25:22;;;;;;;6.32;5.00;;;;;;;;;;4888987;29;20470;-68
2024/01/14 11:27:50;;;;;;;8.38;5.72;;;;;;;;;;4909604;29;20115;-68
2024/01/14 11:30:19;;;;;;;7.63;5.38;;;;;;;;;;4895539;29;20115;-71
2024/01/14 11:32:45;;;;;;;7.15;5.10;;;;;;;;;;4905023;29;20100;-67
2024/01/14 11:35:33;;;;;;;6.47;5.28;;;;;;;;;;4905694;29;20029;-67
2024/01/14 11:37:59;;;;;;;6.97;5.15;;;;;;;;;;4901983;29;20050;-69
2024/01/14 11:40:29;;;;;;;8.20;5.18;;;;;;;;;;4906362;29;20382;-71
2024/01/14 11:43:05;;;;;;;6.70;5.13;;;;;;;;;;4902923;29;20029;-66
2024/01/14 11:45:32;;;;;;;7.25;5.00;;;;;;;;;;4909239;29;20051;-65
2024/01/14 11:47:58;;;;;;;7.95;4.82;;;;;;;;;;4899670;29;20036;-68
2024/01/14 11:50:25;;;;;;;9.98;4.97;;;;;;;;;;4906278;29;20490;-65
2024/01/14 11:52:56;;;;;;;12.75;5.63;;;;;;;;;;4906805;29;20026;-68
2024/01/14 11:55:34;;;;;;;6.28;4.97;;;;;;;;;;4907635;29;20063;-68
2024/01/14 11:58:14;;;;;;;9.10;4.88;;;;;;;;;;4907669;29;20024;-67
2024/01/14 12:00:40;;;;;;;6.80;5.40;;;;;;;;;;4907016;29;20024;-68
2024/01/14 12:03:15;;;;;;;9.13;5.20;;;;;;;;;;4903748;29;20037;-66
2024/01/14 12:05:43;;;;;;;6.72;5.18;;;;;;;;;;4901242;29;20037;-68
2024/01/14 12:08:09;;;;;;;12.10;5.10;;;;;;;;;;4904299;29;20024;-67
2024/01/14 12:10:35;;;;;;;6.75;5.10;;;;;;;;;;4905516;29;20024;-68
2024/01/14 12:13:07;;;;;;;5.70;4.82;;;;;;;;;;4900856;29;20453;-65
2024/01/14 12:15:33;;;;;;;7.88;5.63;;;;;;;;;;4895934;29;20020;-66
2024/01/14 12:18:00;;;;;;;10.13;5.47;;;;;;;;;;4896401;29;20434;-67
2024/01/14 12:20:27;;;;;;;7.88;4.80;;;;;;;;;;4896238;29;20036;-67
2024/01/14 12:23:04;;;;;;;6.93;5.07;;;;;;;;;;4896260;29;20051;-65
2024/01/14 12:25:31;;;;;;;6.30;5.13;;;;;;;;;;4895950;29;20032;-66
2024/01/14 12:27:56;;;;;;;8.90;5.20;;;;;;;;;;4895921;29;20031;-65
2024/01/14 12:30:27;;;;;;;7.13;5.00;;;;;;;;;;4896278;29;20037;-70
2024/01/14 12:32:52;;;;;;;6.05;4.95;;;;;;;;;;4895846;29;20111;-70
2024/01/14 12:35:18;;;;;;;7.68;5.28;;;;;;;;;;4895811;29;20449;-65
2024/01/14 12:37:44;;;;;;;8.82;5.78;;;;;;;;;;4895753;29;20047;-65
2024/01/14 12:40:10;;;;;;;6.97;5.35;;;;;;;;;;4896428;29;20096;-66
2024/01/14 12:42:36;;;;;;;6.18;5.05;;;;;;;;;;4896054;29;20470;-66
2024/01/14 12:45:03;;;;;;;12.55;5.10;;;;;;;;;;4895749;29;20044;-65
2024/01/14 12:47:29;;;;;;;7.55;5.47;;;;;;;;;;4895590;29;20033;-66
2024/01/14 12:49:54;;;;;;;9.57;5.25;;;;;;;;;;4895975;29;20039;-66
2024/01/14 12:52:20;;;;;;;7.72;5.35;;;;;;;;;;4895799;29;20036;-64
2024/01/14 12:54:50;;;;;;;8.13;5.72;;;;;;;;;;4895744;29;20028;-66
2024/01/14 12:57:16;;;;;;;7.13;5.10;;;;;;;;;;4896010;29;20055;-65
2024/01/14 12:59:41;;;;;;;7.28;5.22;;;;;;;;;;4895609;29;20441;-64
2024/01/14 13:02:07;;;;;;;9.52;6.40;;;;;;;;;;4895588;29;20040;-64
2024/01/14 13:04:34;;;;;;;9.13;5.30;;;;;;;;;;4895608;29;20382;-65
2024/01/14 13:06:59;;;;;;;5.15;4.63;;;;;;;;;;4895535;29;20037;-65
2024/01/14 13:09:25;;;;;;;8.77;6.40;;;;;;;;;;4895926;29;20605;-63
2024/01/14 13:11:51;;;;;;;9.00;4.95;;;;;;;;;;4895612;29;20028;-64
2024/01/14 13:14:16;;;;;;;7.70;5.18;;;;;;;;;;4895297;29;20553;-65
2024/01/14 13:16:42;;;;;;;8.13;5.32;;;;;;;;;;4898584;29;20394;-64
2024/01/14 13:19:07;;;;;;;8.10;5.20;;;;;;;;;;4899180;29;20029;-64
2024/01/14 13:21:33;;;;;;;9.68;5.72;;;;;;;;;;4898874;29;20036;-64
2024/01/14 13:23:59;;;;;;;10.18;5.53;;;;;;;;;;4899312;29;20044;-64
2024/01/14 13:26:26;;;;;;;10.95;5.30;;;;;;;;;;4898763;29;20020;-64
2024/01/14 13:28:52;;;;;;;9.07;5.43;;;;;;;;;;4898738;29;20036;-66
2024/01/14 13:31:18;;;;;;;7.53;5.40;;;;;;;;;;4898773;29;20552;-64
2024/01/14 13:33:44;;;;;;;11.18;5.47;;;;;;;;;;4898917;29;20115;-64
2024/01/14 13:36:10;;;;;;;8.38;5.72;;;;;;;;;;4898569;29;20029;-64
2024/01/14 13:38:36;;;;;;;9.00;5.18;;;;;;;;;;4898599;29;20545;-65
2024/01/14 13:41:01;;;;;;;8.90;5.53;;;;;;;;;;4899054;29;20025;-64
2024/01/14 13:43:27;;;;;;;16.25;5.15;;;;;;;;;;4898595;29;20029;-69
2024/01/14 13:45:52;;;;;;;9.13;5.82;;;;;;;;;;4898505;29;20052;-65
2024/01/14 13:48:18;;;;;;;8.23;5.25;;;;;;;;;;4898409;29;20040;-65
2024/01/14 13:50:44;;;;;;;9.82;5.38;;;;;;;;;;4898396;29;20076;-64
2024/01/14 13:53:09;;;;;;;11.48;5.43;;;;;;;;;;4898177;29;20056;-65
2024/01/14 13:55:34;;;;;;;8.38;4.88;;;;;;;;;;4898439;29;20036;-68
2024/01/14 13:58:00;;;;;;;7.65;5.32;;;;;;;;;;4898334;29;20032;-65
2024/01/14 14:00:25;;;;;;;6.53;5.32;;;;;;;;;;4898237;29;20705;-65
2024/01/14 14:02:51;;;;;;;6.70;4.82;;;;;;;;;;4898041;29;20115;-65
2024/01/14 14:05:17;;;;;;;8.18;5.35;;;;;;;;;;4898512;29;20394;-65
2024/01/14 14:07:42;;;;;;;7.68;5.28;;;;;;;;;;4897916;29;20409;-65
2024/01/14 14:10:11;;;;;;;7.97;5.10;;;;;;;;;;4898034;29;20081;-64
2024/01/14 14:12:37;;;;;;;9.77;6.22;;;;;;;;;;4897936;29;20040;-65
2024/01/14 14:15:05;;;;;;;7.55;5.15;;;;;;;;;;4898045;29;20020;-64
2024/01/14 14:17:31;;;;;;;7.68;5.60;;;;;;;;;;4898497;29;20036;-65
2024/01/14 14:19:57;;;;;;;9.20;5.40;;;;;;;;;;4898074;29;20545;-64
2024/01/14 14:22:22;;;;;;;8.48;5.65;;;;;;;;;;4897855;29;20033;-67
2024/01/14 14:24:48;;;;;;;9.70;5.60;;;;;;;;;;4897911;29;20039;-64
2024/01/14 14:27:13;;;;;;;10.68;5.18;;;;;;;;;;4897149;29;20084;-68
2024/01/14 14:29:39;;;;;;;12.15;5.45;;;;;;;;;;4897795;29;20028;-64
2024/01/14 14:32:08;;;;;;;8.07;5.22;;;;;;;;;;4897612;29;20509;-64
2024/01/14 14:34:34;;;;;;;8.07;5.38;;;;;;;;;;4897615;29;20028;-70
2024/01/14 14:37:00;;;;;;;7.57;5.32;;;;;;;;;;4897924;29;20043;-69